• Join FlightAware (Why Join?)
  • Login
  • US Flag 
01:33AM EDT


 

Airport Tracker/Info


-or-


 

Live Flight TrackerFlight Track Log ✈ VH-OEJ ✈ 19-Jun-2013 ✈ YSSY / SYD - KDFW

Flight Track Log - Related Links

Times and Time Zones

All times are in EDT time to prevent confusion due to time zone crossing. See the VH-OEJ flight status page for this flight to view local times or setup timezone preferences in your user account.

Time Position Orientation Groundspeed Altitude Reporting Facility
EDT Latitude Longitude Course Direction KTS MPH feet Rate Location/Type
11:44PM -33.9340 151.1690 North 2 2  Level FlightAware
11:50PM -33.9310 151.1690 360° North 7 8  Level FlightAware
11:51PM -33.9300 151.1690 360° North 6 7 60 Level FlightAware
11:53PM -33.8471 151.4491 70° East  Level Estimated
11:54PM -33.7995 151.6089 70° East  Level Estimated
11:55PM -33.7517 151.7686 70° East  Level Estimated
11:55PM -33.9300 151.1710 70° East 8 9  Level FlightAware
11:55PM -33.9360 151.1730 165° South 98 113 360 Level FlightAware
11:56PM -33.9700 151.1820 168° South 181 208 600 1,080 Climbing FlightAware
11:57PM -33.9970 151.1840 176° South 181 208 1,500 1,380 Climbing FlightAware
11:57PM -34.0140 151.1830 183° South 188 216 1,800 1,260 Climbing FlightAware
11:58PM -34.0636 151.1848 183° South 227 261 2,900 1,080 Climbing Aus ATC (RADAR)
11:58PM -34.0630 151.1850 183° South 223 257 2,700 300 Descending FlightAware
11:58PM -34.0830 151.1880 173° South 254 292 3,000 1,200 Climbing FlightAware
11:58PM -34.0930 151.1960 146° Southeast 262 302 3,200 1,560 Climbing FlightAware
11:58PM -34.1040 151.2150 125° Southeast 278 320 3,700 1,980 Climbing FlightAware
11:59PM -34.1080 151.2390 101° East 289 333 4,200 2,040 Climbing FlightAware
11:59PM -34.1140 151.2860 99° East 300 345 5,200 1,500 Climbing FlightAware
12:00AM -34.1090 151.3310 82° East 332 382 5,600 1,620 Climbing FlightAware
12:00AM -34.0740 151.3710 43° Northeast 354 407 6,700 2,340 Climbing FlightAware
12:00AM -34.0600 151.3800 28° Northeast 355 409 7,200 2,520 Climbing FlightAware
12:01AM -34.0230 151.4060 30° Northeast 361 415 8,300 2,580 Climbing FlightAware
12:01AM -34.0000 151.4320 43° Northeast 357 411 9,100 2,280 Climbing FlightAware
12:02AM -33.9780 151.4880 65° Northeast 363 418 10,100 1,320 Climbing FlightAware
12:02AM -33.9680 151.5610 81° East 386 444 10,600 1,080 Climbing FlightAware
12:03AM -33.9560 151.6600 81° East 416 479 11,600 1,680 Climbing FlightAware
12:03AM -33.9556 151.6672 81° East 409 471 11,900 1,800 Climbing Aus ATC (RADAR)
12:04AM -33.9450 151.7580 82° East 426 490 12,900 1,680 Climbing FlightAware
12:04AM -33.9340 151.8480 82° East 435 501 14,200 2,100 Climbing FlightAware
12:05AM -33.9210 151.9520 81° East 442 509 15,700 2,160 Climbing FlightAware
12:05AM -33.9110 152.0369 81° East 437 503 16,900 1,680 Climbing Aus ATC (RADAR)
12:06AM -33.9090 152.0640 81° East 454 522 17,000 1,440 Climbing FlightAware
12:06AM -33.9070 152.1740 89° East 464 534 18,300 1,980 Climbing FlightAware
12:07AM -33.9079 152.2805 89° East 454 522 19,800 1,920 Climbing Aus ATC (RADAR)
12:07AM -33.9080 152.2830 89° East 469 540 19,600 1,020 Descending FlightAware
12:08AM -33.9080 152.3880 90° East 474 545 20,600 1,440 Climbing FlightAware
12:09AM -33.9090 152.5060 91° East 488 562 21,700 1,740 Climbing FlightAware
12:09AM -33.9097 152.6313 91° East 489 563 23,100 1,620 Climbing Aus ATC (RADAR)
12:09AM -33.9100 152.6290 91° East 496 571 22,900 840 Descending FlightAware
12:10AM -33.8920 152.7610 91° East 507 583 23,800 1,500 Climbing FlightAware
12:10AM -33.8855 152.7810 91° East 501 577 24,200 1,080 Climbing Aus ATC (RADAR)
12:11AM -33.8330 152.9250 67° East 524 603 25,000 780 Climbing FlightAware
12:12AM -33.7880 153.0500 67° East 540 621 25,600 960 Climbing FlightAware
12:12AM -33.7494 153.1602 67° East 546 628 26,300 780 Climbing Aus ATC (RADAR)
12:12AM -33.7510 153.1530 67° East 550 633 26,100 1,200 Descending FlightAware
12:13AM -33.7148 153.2596 67° East 555 639 27,000 1,140 Climbing Aus ATC (RADAR)
12:13AM -33.7060 153.2840 67° East 558 642 27,000 720 Level FlightAware
12:14AM -33.6690 153.3900 67° East 562 647 27,600 1,080 Climbing FlightAware
12:14AM -33.6300 153.4990 67° East 564 649 28,400 1,560 Climbing FlightAware
12:15AM -33.6245 153.5152 67° East 547 629 28,700 780 Climbing Aus ATC (RADAR)
12:15AM -33.5830 153.6320 67° East 569 655 29,000 180 Climbing FlightAware
12:16AM -33.5350 153.7660 67° East 573 659 29,000  Level FlightAware
12:17AM -33.5020 153.8600 67° East 573 659 29,000 180 Level FlightAware
12:17AM -33.4630 153.9673 67° East 569 655 29,200  Climbing Aus ATC (RADAR)
12:17AM -33.4490 154.0050 67° East 572 658 29,000  Descending FlightAware
12:18AM -33.4103 154.1130 67° East 572 658 29,200  Climbing Aus ATC (RADAR)
12:18AM -33.4060 154.1250 67° East 573 659 29,000 -300 Descending FlightAware
12:19AM -33.3700 154.2240 66° East 575 662 29,000  Level FlightAware
12:19AM -33.3180 154.3670 66° East 578 665 29,000 180 Level FlightAware
12:20AM -33.3091 154.3903 66° East 577 664 29,200  Climbing Aus ATC (RADAR)
12:20AM -33.2770 154.4760 66° East 582 670 29,000 -180 Descending FlightAware
12:21AM -33.2250 154.5990 63° Northeast 582 670 29,000  Level FlightAware
12:22AM -33.1510 154.7620 62° Northeast 583 671 29,000  Level FlightAware
12:23AM -33.0740 154.9330 62° Northeast 585 673 29,100  Climbing Aus ATC (RADAR)
12:23AM -33.0610 154.9630 62° Northeast 587 676 29,000 -120 Descending FlightAware
12:24AM -33.0170 155.0570 61° Northeast 587 676 29,000  Level FlightAware
12:25AM -32.9770 155.1440 61° Northeast 587 676 29,000  Level FlightAware
12:25AM -32.9210 155.2640 61° Northeast 587 676 29,000  Level FlightAware
12:26AM -32.8800 155.3510 61° Northeast 587 676 29,000  Level FlightAware
12:27AM -32.8270 155.4660 61° Northeast 587 676 29,000 60 Level FlightAware
12:27AM -32.7023 155.7316 61° Northeast 598 688 29,100  Climbing Aus ATC (RADAR)
12:33AM -32.1915 156.8110 59° Northeast 29,000  Descending Aus ATC (Calculated)
12:35AM -32.1111 157.0385 67° East  Level Estimated
12:36AM -32.0535 157.2008 67° East  Level Estimated
12:37AM -31.9957 157.3629 67° East  Level Estimated
12:38AM -31.9377 157.5248 67° East  Level Estimated
12:38AM -31.7127 157.8050 58° Northeast 29,000  Level Aus ATC (Calculated)
12:39AM -31.8795 157.6865 67° East  Level Estimated
12:40AM -31.6294 158.0330 67° East  Level Estimated
12:41AM -31.5704 158.1938 67° East  Level Estimated
12:42AM -31.5112 158.3543 67° East  Level Estimated
12:43AM -31.4518 158.5147 67° East  Level Estimated
12:43AM -31.2614 158.7184 58° Northeast 29,000  Level Aus ATC (Calculated)
12:44AM -31.3922 158.6748 66° East  Level Estimated
12:45AM -31.1764 158.9445 66° East  Level Estimated
12:45AM -31.0899 159.0600 58° Northeast 29,000  Level Aus ATC (Calculated)
12:45AM -31.0264 159.1856 58° Northeast 29,000  Level Aus ATC (Calculated)
12:47AM -30.9648 159.3472 66° East  Level Estimated
12:48AM -30.9039 159.5059 66° East  Level Estimated
12:48AM -30.7851 159.6595 57° Northeast 29,000  Level Aus ATC (Calculated)
12:50AM -30.6972 159.8862 66° East  Level Estimated
12:51AM -30.6356 160.0441 66° East  Level Estimated
12:52AM -30.5739 160.2017 66° East  Level Estimated
12:52AM -30.4569 160.2949 57° Northeast 29,000  Level Aus ATC (Calculated)
12:53AM -30.5119 160.3592 65° Northeast  Level Estimated
12:53AM -30.2821 160.6293 57° Northeast 29,000  Level Aus ATC (Calculated)
12:54AM -30.3325 160.6091 65° Northeast  Level Estimated
12:55AM -30.2185 160.7885 65° Northeast  Level Estimated
12:56AM -30.1557 160.9450 65° Northeast  Level Estimated
12:57AM -30.0928 161.1012 65° Northeast  Level Estimated
12:58AM -30.0296 161.2573 65° Northeast  Level Estimated
12:58AM -29.8462 161.4510 56° Northeast 29,000  Level Aus ATC (Calculated)
01:00AM -29.7539 161.6762 65° Northeast  Level Estimated
01:01AM -29.6900 161.8313 65° Northeast  Level Estimated
01:02AM -29.6259 161.9863 65° Northeast  Level Estimated
01:03AM -29.5616 162.1410 65° Northeast  Level Estimated
01:03AM -29.3724 162.3255 56° Northeast 29,000  Level Aus ATC (Calculated)
01:04AM -29.3260 162.4101 56° Northeast 29,000  Level Aus ATC (Calculated)
01:04AM -29.2447 162.5579 56° Northeast 29,000  Level Aus ATC (Calculated)
01:05AM -29.2612 162.5640 64° Northeast  Level Estimated
01:06AM -29.1634 162.7500 64° Northeast  Level Estimated
01:06AM -29.1225 162.7792 56° Northeast 29,000  Level Aus ATC (Calculated)
01:06AM -29.0307 162.9449 56° Northeast 29,000  Level Aus ATC (Calculated)
01:07AM -29.0572 162.9326 64° Northeast  Level Estimated
01:08AM -28.9498 163.1337 64° Northeast  Level Estimated
01:09AM -28.8841 163.2865 64° Northeast  Level Estimated
01:09AM -28.8455 163.3316 55° Northeast 29,000  Level Aus ATC (Calculated)
01:09AM -28.7893 163.4481 55° Northeast 29,000  Level Aus ATC (Calculated)
01:10AM -28.7795 163.4841 64° Northeast  Level Estimated
01:11AM -28.7033 163.6462 64° Northeast  Level Estimated
01:12AM -28.6370 163.7984 64° Northeast  Level Estimated
01:12AM -28.5707 163.8985 55° Northeast 29,000  Level Aus ATC (Calculated)
01:12AM -28.5707 163.8985 55° Northeast 29,000  Level Aus ATC (Calculated)
01:13AM -28.5041 164.0503 63° Northeast  Level Estimated
01:14AM -28.4373 164.2019 63° Northeast  Level Estimated
01:15AM -28.3703 164.3533 63° Northeast  Level Estimated
01:16AM -28.3031 164.5045 63° Northeast  Level Estimated
01:17AM -28.2358 164.6556 63° Northeast  Level Estimated
01:18AM -28.1683 164.8064 63° Northeast  Level Estimated
01:19AM -28.1006 164.9571 63° Northeast  Level Estimated
01:20AM -28.0328 165.1076 63° Northeast  Level Estimated
01:21AM -27.9648 165.2579 63° Northeast  Level Estimated
01:22AM -27.8967 165.4079 63° Northeast  Level Estimated
01:23AM -27.8284 165.5578 63° Northeast  Level Estimated
01:24AM -27.7599 165.7076 63° Northeast  Level Estimated
01:25AM -27.6913 165.8571 63° Northeast  Level Estimated
01:26AM -27.6225 166.0064 63° Northeast  Level Estimated
01:27AM -27.5536 166.1556 62° Northeast  Level Estimated
01:28AM -27.4845 166.3045 62° Northeast  Level Estimated
01:29AM -27.4152 166.4533 62° Northeast  Level Estimated
01:30AM -27.3458 166.6019 62° Northeast  Level Estimated
01:31AM -27.2762 166.7503 62° Northeast  Level Estimated
01:32AM -27.2065 166.8985 62° Northeast  Level Estimated
01:33AM -27.1366 167.0465 62° Northeast  Level Estimated
01:34AM -27.0665 167.1944 62° Northeast  Level Estimated
01:35AM -26.9963 167.3420 62° Northeast  Level Estimated
01:36AM -26.9260 167.4895 62° Northeast  Level Estimated
01:37AM -26.8555 167.6368 62° Northeast  Level Estimated
01:38AM -26.7848 167.7839 62° Northeast  Level Estimated
01:39AM -26.7140 167.9308 62° Northeast  Level Estimated
01:40AM -26.6430 168.0775 62° Northeast  Level Estimated
01:41AM -26.5719 168.2241 62° Northeast  Level Estimated
01:42AM -26.5007 168.3705 61° Northeast  Level Estimated
01:43AM -26.4293 168.5167 61° Northeast  Level Estimated
01:44AM -26.3577 168.6627 61° Northeast  Level Estimated
01:45AM -26.2860 168.8085 61° Northeast  Level Estimated
01:46AM -26.2141 168.9542 61° Northeast  Level Estimated
01:47AM -26.1421 169.0996 61° Northeast  Level Estimated
01:48AM -26.0700 169.2449 61° Northeast  Level Estimated
01:49AM -25.9977 169.3900 61° Northeast  Level Estimated
01:50AM -25.9253 169.5350 61° Northeast  Level Estimated
01:51AM -25.8527 169.6797 61° Northeast  Level Estimated
01:52AM -25.7800 169.8243 61° Northeast  Level Estimated
01:53AM -25.7071 169.9687 61° Northeast  Level Estimated
01:54AM -25.6341 170.1129 61° Northeast  Level Estimated
01:55AM -25.5609 170.2570 61° Northeast  Level Estimated
01:56AM -25.4876 170.4008 61° Northeast  Level Estimated
01:57AM -25.4142 170.5445 61° Northeast  Level Estimated
01:58AM -25.3406 170.6881 60° Northeast  Level Estimated
01:59AM -25.2669 170.8314 60° Northeast  Level Estimated
02:00AM -25.1931 170.9746 60° Northeast  Level Estimated
02:01AM -25.1191 171.1176 60° Northeast  Level Estimated
02:02AM -25.0450 171.2604 60° Northeast  Level Estimated
02:03AM -24.9707 171.4030 60° Northeast  Level Estimated
02:04AM -24.8963 171.5455 60° Northeast  Level Estimated
02:05AM -24.8218 171.6878 60° Northeast  Level Estimated
02:06AM -24.7471 171.8300 60° Northeast  Level Estimated
02:07AM -24.6723 171.9720 60° Northeast  Level Estimated
02:08AM -24.5974 172.1138 60° Northeast  Level Estimated
02:09AM -24.5223 172.2554 60° Northeast  Level Estimated
02:10AM -24.4471 172.3968 60° Northeast  Level Estimated
02:11AM -24.3718 172.5381 60° Northeast  Level Estimated
02:12AM -24.2963 172.6792 60° Northeast  Level Estimated
02:13AM -24.2208 172.8202 60° Northeast  Level Estimated
02:14AM -24.1450 172.9610 60° Northeast  Level Estimated
02:15AM -24.0692 173.1016 59° Northeast  Level Estimated
02:16AM -23.9932 173.2421 59° Northeast  Level Estimated
02:17AM -23.9171 173.3823 59° Northeast  Level Estimated
02:18AM -23.8409 173.5225 59° Northeast  Level Estimated
02:19AM -23.7645 173.6624 59° Northeast  Level Estimated
02:20AM -23.6880 173.8022 59° Northeast  Level Estimated
02:21AM -23.6114 173.9418 59° Northeast  Level Estimated
02:22AM -23.5347 174.0813 59° Northeast  Level Estimated
02:23AM -23.4578 174.2206 59° Northeast  Level Estimated
02:24AM -23.3808 174.3597 59° Northeast  Level Estimated
02:25AM -23.3037 174.4987 59° Northeast  Level Estimated
02:26AM -23.2265 174.6375 59° Northeast  Level Estimated
02:27AM -23.1492 174.7762 59° Northeast  Level Estimated
02:28AM -23.0717 174.9147 59° Northeast  Level Estimated
02:29AM -22.9941 175.0530 59° Northeast  Level Estimated
02:30AM -22.9164 175.1912 59° Northeast  Level Estimated
02:31AM -22.8386 175.3292 59° Northeast  Level Estimated
02:32AM -22.7606 175.4671 59° Northeast  Level Estimated
02:33AM -22.6826 175.6048 58° Northeast  Level Estimated
02:34AM -22.6044 175.7423 58° Northeast  Level Estimated
02:35AM -22.5261 175.8797 58° Northeast  Level Estimated
02:36AM -22.4477 176.0170 58° Northeast  Level Estimated
02:37AM -22.3691 176.1540 58° Northeast  Level Estimated
02:38AM -22.2905 176.2910 58° Northeast  Level Estimated
02:39AM -22.2117 176.4277 58° Northeast  Level Estimated
02:40AM -22.1328 176.5643 58° Northeast  Level Estimated
02:41AM -22.0538 176.7008 58° Northeast  Level Estimated
02:42AM -21.9747 176.8371 58° Northeast  Level Estimated
02:43AM -21.8955 176.9733 58° Northeast  Level Estimated
02:44AM -21.8162 177.1093 58° Northeast  Level Estimated
02:45AM -21.7367 177.2451 58° Northeast  Level Estimated
02:46AM -21.6572 177.3809 58° Northeast  Level Estimated
02:47AM -21.5775 177.5164 58° Northeast  Level Estimated
02:48AM -21.4978 177.6518 58° Northeast  Level Estimated
02:49AM -21.4179 177.7871 58° Northeast  Level Estimated
02:50AM -21.3379 177.9222 58° Northeast  Level Estimated
02:51AM -21.2578 178.0572 58° Northeast  Level Estimated
02:52AM -21.1776 178.1920 57° Northeast  Level Estimated
02:53AM -21.0973 178.3266 57° Northeast  Level Estimated
02:54AM -21.0169 178.4612 57° Northeast  Level Estimated
02:55AM -20.9364 178.5956 57° Northeast  Level Estimated
02:56AM -20.8557 178.7298 57° Northeast  Level Estimated
02:57AM -20.7750 178.8639 57° Northeast  Level Estimated
02:58AM -20.6942 178.9978 57° Northeast  Level Estimated
02:59AM -20.6132 179.1317 57° Northeast  Level Estimated
03:00AM -20.5322 179.2653 57° Northeast  Level Estimated
03:01AM -20.4510 179.3988 57° Northeast  Level Estimated
03:02AM -20.3698 179.5322 57° Northeast  Level Estimated
03:03AM -20.2885 179.6655 57° Northeast  Level Estimated
03:04AM -20.2070 179.7986 57° Northeast  Level Estimated
03:05AM -20.1255 179.9315 57° Northeast  Level Estimated
03:06AM -20.0438 -179.9357 57° Northeast  Level Estimated
03:07AM -19.9621 -179.8030 57° Northeast  Level Estimated
03:08AM -19.8802 -179.6704 57° Northeast  Level Estimated
03:09AM -19.7983 -179.5380 57° Northeast  Level Estimated
03:10AM -19.7162 -179.4058 57° Northeast  Level Estimated
03:11AM -19.6341 -179.2736 57° Northeast  Level Estimated
03:12AM -19.5539 -179.1448 57° Northeast  Level Estimated
03:13AM -19.4735 -179.0161 57° Northeast  Level Estimated
03:14AM -19.3931 -178.8876 56° Northeast  Level Estimated
03:15AM -19.3126 -178.7592 56° Northeast  Level Estimated
03:16AM -19.2320 -178.6309 56° Northeast  Level Estimated
03:17AM -19.1513 -178.5027 56° Northeast  Level Estimated
03:18AM -19.0705 -178.3746 56° Northeast  Level Estimated
03:19AM -18.9897 -178.2467 56° Northeast  Level Estimated
03:20AM -18.9087 -178.1189 56° Northeast  Level Estimated
03:21AM -18.8277 -177.9913 56° Northeast  Level Estimated
03:22AM -18.7465 -177.8637 56° Northeast  Level Estimated
03:23AM -18.6653 -177.7363 56° Northeast  Level Estimated
03:24AM -18.5840 -177.6090 56° Northeast  Level Estimated
03:25AM -18.5026 -177.4818 56° Northeast  Level Estimated
03:26AM -18.4212 -177.3547 56° Northeast  Level Estimated
03:27AM -18.3396 -177.2278 56° Northeast  Level Estimated
03:28AM -18.2579 -177.1010 56° Northeast  Level Estimated
03:29AM -18.1762 -176.9743 56° Northeast  Level Estimated
03:30AM -18.0944 -176.8477 56° Northeast  Level Estimated
03:31AM -18.0125 -176.7212 56° Northeast  Level Estimated
03:32AM -17.9306 -176.5949 56° Northeast  Level Estimated
03:33AM -17.8485 -176.4686 56° Northeast  Level Estimated
03:34AM -17.7664 -176.3425 56° Northeast  Level Estimated
03:35AM -17.6842 -176.2165 56° Northeast  Level Estimated
03:36AM -17.6019 -176.0906 56° Northeast  Level Estimated
03:37AM -17.5195 -175.9649 56° Northeast  Level Estimated
03:38AM -17.4371 -175.8392 55° Northeast  Level Estimated
03:39AM -17.3545 -175.7137 55° Northeast  Level Estimated
03:40AM -17.2719 -175.5882 55° Northeast  Level Estimated
03:41AM -17.1892 -175.4629 55° Northeast  Level Estimated
03:42AM -17.1065 -175.3377 55° Northeast  Level Estimated
03:43AM -17.0236 -175.2126 55° Northeast  Level Estimated
03:44AM -16.9407 -175.0876 55° Northeast  Level Estimated
03:45AM -16.8577 -174.9628 55° Northeast  Level Estimated
03:46AM -16.7746 -174.8380 55° Northeast  Level Estimated
03:47AM -16.6915 -174.7134 55° Northeast  Level Estimated
03:48AM -16.6083 -174.5888 55° Northeast  Level Estimated
03:49AM -16.5250 -174.4644 55° Northeast  Level Estimated
03:50AM -16.4416 -174.3400 55° Northeast  Level Estimated
03:51AM -16.3582 -174.2158 55° Northeast  Level Estimated
03:52AM -16.2747 -174.0917 55° Northeast  Level Estimated
03:52AM -13.7500 -174.8500 55° Northeast 542 624  Level New Zealand
03:53AM -16.1911 -173.9677 55° Northeast  Level Estimated
03:54AM -16.1074 -173.8438 55° Northeast  Level Estimated
03:54AM -13.5500 -174.6167 49° Northeast 542 624  Level New Zealand
03:56AM -13.3500 -174.3833 49° Northeast 542 624 420 Level New Zealand
03:58AM -13.1500 -174.1667 47° Northeast 542 624 420 Level New Zealand
04:00AM -12.9333 -173.9333 46° Northeast 540 621 420 Level New Zealand
04:02AM -12.7167 -173.7167 44° Northeast 539 620 420 Level New Zealand
04:04AM -12.5000 -173.5000 44° Northeast 539 620 480 Level New Zealand
04:06AM -12.2833 -173.2833 44° Northeast 539 620 480 Level New Zealand
04:08AM -12.0833 -173.0833 44° Northeast 539 620 480 Level New Zealand
04:10AM -11.8500 -172.8667 42° Northeast 539 620 480 Level New Zealand
04:12AM -11.6167 -172.6667 40° Northeast 539 620 540 Level New Zealand
04:14AM -11.4000 -172.4667 42° Northeast 539 620 540 Level New Zealand
04:16AM -11.1667 -172.2667 40° Northeast 539 620 540 Level New Zealand
04:18AM -10.9333 -172.0667 40° Northeast 539 620 600 Level New Zealand
04:20AM -10.7167 -171.8667 42° Northeast 539 620 600 Level New Zealand
04:22AM -10.4833 -171.6667 40° Northeast 539 620 600 Level New Zealand
04:24AM -10.2167 -171.4333 41° Northeast 535 616 660 Level New Zealand
04:26AM -9.9833 -171.2500 38° Northeast 535 616 660 Level New Zealand
04:28AM -9.7667 -171.0500 42° Northeast 535 616 720 Level New Zealand
04:30AM -9.5333 -170.8500 40° Northeast 535 616 780 Level New Zealand
04:32AM -9.3000 -170.6500 40° Northeast 535 616 780 Level New Zealand
04:34AM -9.0833 -170.4667 40° Northeast 535 616 840 Level New Zealand
04:36AM -8.8500 -170.2667 40° Northeast 535 616 900 Level New Zealand
04:38AM -8.6333 -170.0667 42° Northeast 535 616 960 Level New Zealand
04:40AM -8.4000 -169.8833 38° Northeast 535 616 1,020 Level New Zealand
04:42AM -8.1667 -169.6833 40° Northeast 535 616 1,080 Level New Zealand
04:44AM -7.9167 -169.4500 43° Northeast 535 616 1,140 Level New Zealand
04:46AM -7.6833 -169.2667 38° Northeast 535 616 1,200 Level New Zealand
04:48AM -7.4500 -169.0667 40° Northeast 535 616 1,320 Level New Zealand
04:50AM -7.2167 -168.8833 38° Northeast 535 616 1,440 Level New Zealand
04:52AM -7.0000 -168.6833 43° Northeast 535 616 1,620 Level New Zealand
04:54AM -6.7667 -168.4833 40° Northeast 535 616 1,800 Level New Zealand
04:56AM -6.5333 -168.3000 38° Northeast 535 616 1,980 Level New Zealand
04:58AM -6.3167 -168.1000 43° Northeast 535 616 2,280 Level New Zealand
05:00AM -6.0667 -167.9000 39° Northeast 535 616 2,640 Level New Zealand
05:02AM -5.8500 -167.7167 40° Northeast 535 616 3,240 Level New Zealand
05:04AM -5.6167 -167.5167 40° Northeast 535 616 4,020 Level New Zealand
05:06AM -5.3667 -167.3000 41° Northeast 532 612 5,280 Level New Zealand
05:08AM -5.1333 -167.1167 38° Northeast 532 612 7,860 Level New Zealand
05:10AM -4.9500 -166.9667 41° Northeast 521 600 33,000 13,620 Climbing Oakland Oceanic (ODAPS)
05:10AM -4.8833 -166.9000 220° Southwest 509 586 33,000  Level Oakland Oceanic (ODAPS)
05:16AM -4.5492 -166.6109 41° Northeast 509 586 33,000  Level FlightAware Transoceanic
05:17AM -4.4365 -166.5138 41° Northeast 509 586 33,000  Level FlightAware Transoceanic
05:18AM -4.3238 -166.4166 41° Northeast 509 586 33,000  Level FlightAware Transoceanic
05:19AM -4.2110 -166.3195 41° Northeast 509 586 33,000  Level FlightAware Transoceanic
05:20AM -4.0982 -166.2224 41° Northeast 509 586 33,000  Level FlightAware Transoceanic
05:21AM -3.9855 -166.1253 41° Northeast 509 586 33,000  Level FlightAware Transoceanic
05:22AM -3.8727 -166.0283 41° Northeast 509 586 33,000  Level FlightAware Transoceanic
05:23AM -3.7599 -165.9313 41° Northeast 509 586 33,000  Level FlightAware Transoceanic
05:24AM -3.6471 -165.8343 41° Northeast 509 586 33,000  Level FlightAware Transoceanic
05:24AM -3.3667 -165.5833 41° Northeast 511 588 33,000  Level Oakland Oceanic (ODAPS)
05:25AM -3.5342 -165.7373 41° Northeast 509 586 33,000  Level FlightAware Transoceanic
05:26AM -3.4214 -165.6404 41° Northeast 509 586 33,000  Level FlightAware Transoceanic
05:27AM -3.3086 -165.5434 41° Northeast 509 586 33,000  Level FlightAware Transoceanic
05:28AM -3.1957 -165.4465 41° Northeast 509 586 33,000  Level FlightAware Transoceanic
05:29AM -3.0829 -165.3497 41° Northeast 509 586 33,000  Level FlightAware Transoceanic
05:30AM -2.7231 -165.0323 41° Northeast 511 588 33,000  Level FlightAware Transoceanic
05:31AM -2.6158 -164.9405 41° Northeast 511 588 33,000  Level FlightAware Transoceanic
05:32AM -2.5086 -164.8487 41° Northeast 511 588 33,000  Level FlightAware Transoceanic
05:33AM -2.4013 -164.7569 41° Northeast 511 588 33,000  Level FlightAware Transoceanic
05:34AM -2.2940 -164.6652 41° Northeast 511 588 33,000  Level FlightAware Transoceanic
05:35AM -2.1867 -164.5735 41° Northeast 511 588 33,000  Level FlightAware Transoceanic
05:36AM -2.0793 -164.4818 40° Northeast 511 588 33,000  Level FlightAware Transoceanic
05:37AM -1.9720 -164.3901 40° Northeast 511 588 33,000  Level FlightAware Transoceanic
05:38AM -1.8647 -164.2984 40° Northeast 511 588 33,000 1,440 Level FlightAware Transoceanic
05:38AM -1.8000 -164.2500 41° Northeast 514 592 35,000  Climbing Oakland Oceanic (ODAPS)
05:39AM -1.7574 -164.2067 40° Northeast 511 588 33,000 -1,260 Descending FlightAware Transoceanic
05:40AM -1.6500 -164.1150 40° Northeast 511 588 33,000  Level FlightAware Transoceanic
05:41AM -1.5427 -164.0234 40° Northeast 511 588 33,000  Level FlightAware Transoceanic
05:42AM -1.4354 -163.9317 40° Northeast 511 588 33,000  Level FlightAware Transoceanic
05:43AM -1.3280 -163.8401 40° Northeast 511 588 33,000 960 Level FlightAware Transoceanic
05:44AM -1.1486 -163.6927 41° Northeast 514 592 35,000 960 Climbing FlightAware Transoceanic
05:45AM -1.0401 -163.5998 41° Northeast 514 592 35,000  Level FlightAware Transoceanic
05:46AM -0.9315 -163.5070 41° Northeast 514 592 35,000  Level FlightAware Transoceanic
05:47AM -0.8229 -163.4141 41° Northeast 514 592 35,000  Level FlightAware Transoceanic
05:48AM -0.7143 -163.3213 41° Northeast 514 592 35,000  Level FlightAware Transoceanic
05:49AM -0.6058 -163.2285 41° Northeast 514 592 35,000  Level FlightAware Transoceanic
05:50AM -0.4972 -163.1356 41° Northeast 514 592 35,000  Level FlightAware Transoceanic
05:51AM -0.3886 -163.0428 41° Northeast 514 592 35,000  Level FlightAware Transoceanic
05:52AM -0.2800 -162.9500 41° Northeast 514 592 35,000  Level FlightAware Transoceanic
05:52AM -0.2667 -162.9333 40° Northeast 513 590 35,000  Level Oakland Oceanic (ODAPS)
05:53AM -0.1714 -162.8571 41° Northeast 514 592 35,000  Level FlightAware Transoceanic
05:54AM -0.0628 -162.7643 41° Northeast 514 592 35,000  Level FlightAware Transoceanic
05:55AM 0.0457 -162.6715 41° Northeast 514 592 35,000  Level FlightAware Transoceanic
05:56AM 0.1543 -162.5787 41° Northeast 514 592 35,000  Level FlightAware Transoceanic
05:57AM 0.2629 -162.4859 41° Northeast 514 592 35,000  Level FlightAware Transoceanic
05:58AM 0.3810 -162.3811 40° Northeast 513 590 35,000  Level FlightAware Transoceanic
05:59AM 0.4890 -162.2891 40° Northeast 513 590 35,000  Level FlightAware Transoceanic
06:00AM 0.5969 -162.1971 40° Northeast 513 590 35,000  Level FlightAware Transoceanic
06:01AM 0.7049 -162.1050 40° Northeast 513 590 35,000  Level FlightAware Transoceanic
06:02AM 0.8128 -162.0130 40° Northeast 513 590 35,000  Level FlightAware Transoceanic
06:03AM 0.9208 -161.9209 40° Northeast 513 590 35,000  Level FlightAware Transoceanic
06:04AM 1.0287 -161.8289 40° Northeast 513 590 35,000  Level FlightAware Transoceanic
06:05AM 1.1366 -161.7368 40° Northeast 513 590 35,000  Level FlightAware Transoceanic
06:06AM 1.2446 -161.6447 40° Northeast 513 590 35,000  Level FlightAware Transoceanic
06:06AM 1.2333 -161.6500 40° Northeast 495 570 35,000  Level Oakland Oceanic (ODAPS)
06:07AM 1.3525 -161.5527 40° Northeast 513 590 35,000  Level FlightAware Transoceanic
06:08AM 1.4604 -161.4606 40° Northeast 513 590 35,000  Level FlightAware Transoceanic
06:09AM 1.5683 -161.3685 40° Northeast 513 590 35,000  Level FlightAware Transoceanic
06:10AM 1.6763 -161.2764 40° Northeast 513 590 35,000  Level FlightAware Transoceanic
06:11AM 1.7842 -161.1843 40° Northeast 513 590 35,000  Level FlightAware Transoceanic
06:12AM 1.8905 -161.0929 40° Northeast 495 570 35,000  Level FlightAware Transoceanic
06:13AM 2.0000 -161.0000 38° Northeast 495 570 35,000  Level FlightAware Transoceanic
06:13AM 2.0000 -161.0000 38° Northeast 494 568 35,000  Level Oakland Oceanic (ODAPS)
06:14AM 2.1066 -160.9154 38° Northeast 495 570 35,000  Level FlightAware Transoceanic
06:15AM 2.2131 -160.8307 38° Northeast 495 570 35,000  Level FlightAware Transoceanic
06:16AM 2.3197 -160.7461 38° Northeast 495 570 35,000  Level FlightAware Transoceanic
06:17AM 2.4262 -160.6614 38° Northeast 495 570 35,000  Level FlightAware Transoceanic
06:18AM 2.5328 -160.5767 38° Northeast 495 570 35,000  Level FlightAware Transoceanic
06:19AM 2.6393 -160.4920 38° Northeast 494 568 35,000  Level FlightAware Transoceanic
06:19AM 2.7167 -160.4333 38° Northeast 477 549 35,000  Level Oakland Oceanic (ODAPS)
06:20AM 2.7459 -160.4073 38° Northeast 494 568 35,000  Level FlightAware Transoceanic
06:21AM 2.8524 -160.3226 38° Northeast 494 568 35,000  Level FlightAware Transoceanic
06:22AM 2.9589 -160.2378 38° Northeast 494 568 35,000  Level FlightAware Transoceanic
06:23AM 3.0655 -160.1530 38° Northeast 494 568 35,000  Level FlightAware Transoceanic
06:24AM 3.1720 -160.0683 38° Northeast 494 568 35,000  Level FlightAware Transoceanic
06:25AM 3.2785 -159.9835 38° Northeast 494 568 35,000  Level FlightAware Transoceanic
06:26AM 3.3445 -159.9333 39° Northeast 477 549 35,000  Level FlightAware Transoceanic
06:27AM 3.4491 -159.8499 39° Northeast 477 549 35,000  Level FlightAware Transoceanic
06:28AM 3.5537 -159.7665 39° Northeast 477 549 35,000  Level FlightAware Transoceanic
06:29AM 3.6583 -159.6831 39° Northeast 477 549 35,000  Level FlightAware Transoceanic
06:30AM 3.7629 -159.5997 39° Northeast 477 549 35,000  Level FlightAware Transoceanic
06:31AM 3.8674 -159.5162 39° Northeast 477 549 35,000  Level FlightAware Transoceanic
06:32AM 3.9720 -159.4327 39° Northeast 477 549 35,000  Level FlightAware Transoceanic
06:33AM 4.0766 -159.3492 39° Northeast 477 549 35,000  Level FlightAware Transoceanic
06:33AM 4.1667 -159.2667 38° Northeast 482 555 35,000  Level Oakland Oceanic (ODAPS)
06:34AM 4.1811 -159.2657 39° Northeast 477 549 35,000  Level FlightAware Transoceanic
06:35AM 4.2857 -159.1821 39° Northeast 477 549 35,000  Level FlightAware Transoceanic
06:36AM 4.3902 -159.0985 39° Northeast 477 549 35,000  Level FlightAware Transoceanic
06:37AM 4.4947 -159.0149 39° Northeast 477 549 35,000  Level FlightAware Transoceanic
06:38AM 4.5992 -158.9313 39° Northeast 477 549 35,000  Level FlightAware Transoceanic
06:39AM 4.7038 -158.8477 39° Northeast 477 549 35,000  Level FlightAware Transoceanic
06:40AM 4.7970 -158.7648 38° Northeast 482 555 35,000  Level FlightAware Transoceanic
06:41AM 4.9020 -158.6810 38° Northeast 482 555 35,000  Level FlightAware Transoceanic
06:42AM 5.0071 -158.5973 38° Northeast 482 555 35,000  Level FlightAware Transoceanic
06:43AM 5.1121 -158.5135 38° Northeast 482 555 35,000  Level FlightAware Transoceanic
06:44AM 5.2170 -158.4297 38° Northeast 482 555 35,000  Level FlightAware Transoceanic
06:45AM 5.3220 -158.3458 38° Northeast 482 555 35,000  Level FlightAware Transoceanic
06:46AM 5.4270 -158.2619 39° Northeast 482 555 35,000  Level FlightAware Transoceanic
06:47AM 5.5319 -158.1780 39° Northeast 482 555 35,000  Level FlightAware Transoceanic
06:47AM 5.6167 -158.1167 39° Northeast 476 548 35,000  Level Oakland Oceanic (ODAPS)
06:48AM 5.6369 -158.0941 39° Northeast 482 555 35,000  Level FlightAware Transoceanic
06:49AM 5.7418 -158.0101 39° Northeast 482 555 35,000  Level FlightAware Transoceanic
06:50AM 5.8467 -157.9261 39° Northeast 482 555 35,000  Level FlightAware Transoceanic
06:51AM 5.9517 -157.8421 39° Northeast 482 555 35,000  Level FlightAware Transoceanic
06:52AM 6.0566 -157.7581 39° Northeast 482 555 35,000  Level FlightAware Transoceanic
06:53AM 6.1614 -157.6740 39° Northeast 482 555 35,000  Level FlightAware Transoceanic
06:54AM 6.2554 -157.6020 39° Northeast 476 548 35,000  Level FlightAware Transoceanic
06:55AM 6.3618 -157.5161 39° Northeast 476 548 35,000  Level FlightAware Transoceanic
06:56AM 6.4682 -157.4302 39° Northeast 476 548 35,000  Level FlightAware Transoceanic
06:57AM 6.5746 -157.3442 39° Northeast 476 548 35,000  Level FlightAware Transoceanic
06:58AM 6.6810 -157.2582 39° Northeast 476 548 35,000  Level FlightAware Transoceanic
06:59AM 6.7873 -157.1722 39° Northeast 476 548 35,000  Level FlightAware Transoceanic
07:00AM 6.8937 -157.0861 39° Northeast 476 548 35,000  Level FlightAware Transoceanic
07:00AM 7.0000 -157.0000 44° Northeast 494 568 35,000  Level Oakland Oceanic (ODAPS)
07:01AM 7.0000 -157.0000 44° Northeast 476 548 35,000  Level FlightAware Transoceanic
07:01AM 7.0667 -156.9333 44° Northeast 494 568 35,000  Level Oakland Oceanic (ODAPS)
07:02AM 7.0987 -156.9032 44° Northeast 476 548 35,000  Level FlightAware Transoceanic
07:03AM 7.1973 -156.8064 44° Northeast 476 548 35,000  Level FlightAware Transoceanic
07:04AM 7.2959 -156.7096 44° Northeast 476 548 35,000  Level FlightAware Transoceanic
07:05AM 7.3945 -156.6127 44° Northeast 476 548 35,000  Level FlightAware Transoceanic
07:06AM 7.4931 -156.5158 44° Northeast 476 548 35,000  Level FlightAware Transoceanic
07:07AM 7.6504 -156.3598 44° Northeast 494 568 35,000  Level FlightAware Transoceanic
07:08AM 7.7476 -156.2641 44° Northeast 494 568 35,000  Level FlightAware Transoceanic
07:09AM 7.8448 -156.1683 44° Northeast 494 568 35,000  Level FlightAware Transoceanic
07:10AM 7.9420 -156.0725 44° Northeast 494 568 35,000  Level FlightAware Transoceanic
07:11AM 8.0392 -155.9767 44° Northeast 494 568 35,000  Level FlightAware Transoceanic
07:12AM 8.1363 -155.8808 44° Northeast 494 568 35,000  Level FlightAware Transoceanic
07:13AM 8.2334 -155.7848 44° Northeast 494 568 35,000  Level FlightAware Transoceanic
07:14AM 8.3305 -155.6888 44° Northeast 494 568 35,000  Level FlightAware Transoceanic
07:15AM 8.4275 -155.5927 44° Northeast 494 568 35,000  Level FlightAware Transoceanic
07:15AM 8.4167 -155.6000 44° Northeast 499 574 35,000  Level Oakland Oceanic (ODAPS)
07:16AM 8.5246 -155.4966 44° Northeast 494 568 35,000  Level FlightAware Transoceanic
07:17AM 8.6216 -155.4005 44° Northeast 494 568 35,000  Level FlightAware Transoceanic
07:18AM 8.7186 -155.3043 44° Northeast 494 568 35,000  Level FlightAware Transoceanic
07:19AM 8.8156 -155.2080 44° Northeast 494 568 35,000  Level FlightAware Transoceanic
07:20AM 8.9125 -155.1117 44° Northeast 494 568 35,000  Level FlightAware Transoceanic
07:21AM 9.0003 -155.0215 44° Northeast 499 574 35,000  Level FlightAware Transoceanic
07:22AM 9.0975 -154.9249 44° Northeast 499 574 35,000  Level FlightAware Transoceanic
07:23AM 9.1947 -154.8283 44° Northeast 499 574 35,000  Level FlightAware Transoceanic
07:24AM 9.2918 -154.7316 45° Northeast 499 574 35,000  Level FlightAware Transoceanic
07:25AM 9.3889 -154.6348 45° Northeast 499 574 35,000  Level FlightAware Transoceanic
07:26AM 9.4860 -154.5380 45° Northeast 499 574 35,000  Level FlightAware Transoceanic
07:27AM 9.5831 -154.4411 45° Northeast 499 574 35,000  Level FlightAware Transoceanic
07:28AM 9.6801 -154.3442 45° Northeast 499 574 35,000  Level FlightAware Transoceanic
07:29AM 9.7771 -154.2472 45° Northeast 499 574 35,000  Level FlightAware Transoceanic
07:29AM 9.8000 -154.2167 44° Northeast 501 577 35,000  Level Oakland Oceanic (ODAPS)
07:30AM 9.8741 -154.1502 45° Northeast 499 574 35,000  Level FlightAware Transoceanic
07:31AM 9.9710 -154.0531 45° Northeast 499 574 35,000  Level FlightAware Transoceanic
07:32AM 10.0679 -153.9560 45° Northeast 499 574 35,000  Level FlightAware Transoceanic
07:33AM 10.1648 -153.8588 45° Northeast 499 574 35,000  Level FlightAware Transoceanic
07:34AM 10.2617 -153.7615 45° Northeast 499 574 35,000  Level FlightAware Transoceanic
07:35AM 10.4016 -153.6153 45° Northeast 501 577 35,000  Level FlightAware Transoceanic
07:36AM 10.5017 -153.5149 45° Northeast 501 577 35,000  Level FlightAware Transoceanic
07:37AM 10.6018 -153.4144 45° Northeast 501 577 35,000  Level FlightAware Transoceanic
07:38AM 10.7019 -153.3138 45° Northeast 501 577 35,000  Level FlightAware Transoceanic
07:39AM 10.8020 -153.2131 45° Northeast 501 577 35,000  Level FlightAware Transoceanic
07:39AM 10.8167 -153.2000 45° Northeast 509 586 35,000  Level Oakland Oceanic (ODAPS)
07:40AM 10.9020 -153.1124 45° Northeast 501 577 35,000  Level FlightAware Transoceanic
07:41AM 11.0020 -153.0116 45° Northeast 501 577 35,000  Level FlightAware Transoceanic
07:42AM 11.1019 -152.9108 45° Northeast 501 577 35,000  Level FlightAware Transoceanic
07:43AM 11.2019 -152.8099 45° Northeast 501 577 35,000  Level FlightAware Transoceanic
07:43AM 11.2000 -152.8167 45° Northeast 508 585 35,000  Level Oakland Oceanic (ODAPS)
07:44AM 11.3018 -152.7089 45° Northeast 501 577 35,000  Level FlightAware Transoceanic
07:45AM 11.4016 -152.6078 45° Northeast 501 577 35,000  Level FlightAware Transoceanic
07:46AM 11.5075 -152.5012 45° Northeast 509 586 35,000  Level FlightAware Transoceanic
07:47AM 11.6061 -152.4011 45° Northeast 509 586 35,000  Level FlightAware Transoceanic
07:48AM 11.7046 -152.3009 45° Northeast 509 586 35,000  Level FlightAware Transoceanic
07:49AM 11.8002 -152.2046 45° Northeast 508 585 35,000  Level FlightAware Transoceanic
07:50AM 11.9001 -152.1023 45° Northeast 508 585 35,000  Level FlightAware Transoceanic
07:51AM 12.0000 -152.0000 48° Northeast 508 585 35,000  Level FlightAware Transoceanic
07:51AM 12.0000 -152.0000 48° Northeast 507 583 35,000  Level Oakland Oceanic (ODAPS)
07:52AM 12.0953 -151.8934 48° Northeast 508 585 35,000  Level FlightAware Transoceanic
07:53AM 12.1905 -151.7868 48° Northeast 508 585 35,000  Level FlightAware Transoceanic
07:54AM 12.2857 -151.6801 48° Northeast 508 585 35,000  Level FlightAware Transoceanic
07:55AM 12.3808 -151.5733 48° Northeast 508 585 35,000  Level FlightAware Transoceanic
07:56AM 12.4760 -151.4664 48° Northeast 508 585 35,000  Level FlightAware Transoceanic
07:57AM 12.5710 -151.3595 48° Northeast 507 583 35,000  Level FlightAware Transoceanic
07:57AM 12.5667 -151.3667 48° Northeast 502 578 35,000  Level Oakland Oceanic (ODAPS)
07:58AM 12.6660 -151.2525 48° Northeast 507 583 35,000  Level FlightAware Transoceanic
07:59AM 12.7610 -151.1454 48° Northeast 507 583 35,000  Level FlightAware Transoceanic
08:00AM 12.8560 -151.0382 48° Northeast 507 583 35,000  Level FlightAware Transoceanic
08:01AM 12.9508 -150.9309 48° Northeast 507 583 35,000  Level FlightAware Transoceanic
08:02AM 13.0457 -150.8235 48° Northeast 507 583 35,000  Level FlightAware Transoceanic
08:03AM 13.1270 -150.7335 48° Northeast 502 578 35,000  Level FlightAware Transoceanic
08:04AM 13.2202 -150.6277 48° Northeast 502 578 35,000  Level FlightAware Transoceanic
08:05AM 13.3134 -150.5219 48° Northeast 502 578 35,000  Level FlightAware Transoceanic
08:06AM 13.4066 -150.4159 48° Northeast 502 578 35,000  Level FlightAware Transoceanic
08:07AM 13.4997 -150.3098 48° Northeast 502 578 35,000  Level FlightAware Transoceanic
08:08AM 13.5927 -150.2037 48° Northeast 502 578 35,000  Level FlightAware Transoceanic
08:09AM 13.6857 -150.0975 48° Northeast 502 578 35,000  Level FlightAware Transoceanic
08:10AM 13.7787 -149.9912 48° Northeast 502 578 35,000  Level FlightAware Transoceanic
08:10AM 13.8833 -149.8667 48° Northeast 504 580 35,000  Level Oakland Oceanic (ODAPS)
08:11AM 13.8716 -149.8848 48° Northeast 502 578 35,000  Level FlightAware Transoceanic
08:12AM 13.9645 -149.7784 48° Northeast 502 578 35,000  Level FlightAware Transoceanic
08:13AM 14.0573 -149.6718 48° Northeast 502 578 35,000  Level FlightAware Transoceanic
08:14AM 14.1501 -149.5652 48° Northeast 502 578 35,000  Level FlightAware Transoceanic
08:15AM 14.2429 -149.4584 48° Northeast 502 578 35,000  Level FlightAware Transoceanic
08:16AM 14.3356 -149.3516 48° Northeast 502 578 35,000  Level FlightAware Transoceanic
08:17AM 14.4509 -149.2144 48° Northeast 504 580 35,000  Level FlightAware Transoceanic
08:18AM 14.5453 -149.1054 48° Northeast 504 580 35,000  Level FlightAware Transoceanic
08:19AM 14.6397 -148.9962 48° Northeast 504 580 35,000  Level FlightAware Transoceanic
08:20AM 14.7340 -148.8870 48° Northeast 504 580 35,000  Level FlightAware Transoceanic
08:21AM 14.8283 -148.7777 48° Northeast 504 580 35,000  Level FlightAware Transoceanic
08:22AM 14.9225 -148.6683 48° Northeast 504 580 35,000  Level FlightAware Transoceanic
08:23AM 15.0166 -148.5588 48° Northeast 504 580 35,000  Level FlightAware Transoceanic
08:24AM 15.1108 -148.4492 48° Northeast 504 580 35,000  Level FlightAware Transoceanic
08:24AM 15.2000 -148.3333 48° Northeast 512 589 35,000  Level Oakland Oceanic (ODAPS)
08:25AM 15.2048 -148.3395 48° Northeast 504 580 35,000  Level FlightAware Transoceanic
08:26AM 15.2988 -148.2297 48° Northeast 504 580 35,000  Level FlightAware Transoceanic
08:27AM 15.3928 -148.1198 48° Northeast 504 580 35,000  Level FlightAware Transoceanic
08:28AM 15.4867 -148.0098 48° Northeast 504 580 35,000  Level FlightAware Transoceanic
08:29AM 15.5805 -147.8997 49° Northeast 504 580 35,000  Level FlightAware Transoceanic
08:30AM 15.6743 -147.7895 49° Northeast 504 580 35,000  Level FlightAware Transoceanic
08:31AM 15.7836 -147.6515 48° Northeast 512 589 35,000  Level FlightAware Transoceanic
08:32AM 15.8806 -147.5375 49° Northeast 512 589 35,000  Level FlightAware Transoceanic
08:33AM 15.9776 -147.4234 49° Northeast 512 589 35,000  Level FlightAware Transoceanic
08:34AM 16.0746 -147.3091 49° Northeast 512 589 35,000  Level FlightAware Transoceanic
08:35AM 16.1714 -147.1948 49° Northeast 512 589 35,000  Level FlightAware Transoceanic
08:36AM 16.2683 -147.0803 49° Northeast 512 589 35,000  Level FlightAware Transoceanic
08:37AM 16.3650 -146.9657 49° Northeast 512 589 35,000  Level FlightAware Transoceanic
08:38AM 16.4617 -146.8511 49° Northeast 512 589 35,000  Level FlightAware Transoceanic
08:38AM 16.5167 -146.8000 49° Northeast 506 582 35,000  Level Oakland Oceanic (ODAPS)
08:39AM 16.5583 -146.7363 49° Northeast 512 589 35,000  Level FlightAware Transoceanic
08:40AM 16.6549 -146.6213 49° Northeast 512 589 35,000  Level FlightAware Transoceanic
08:41AM 16.7514 -146.5063 49° Northeast 512 589 35,000  Level FlightAware Transoceanic
08:42AM 16.8479 -146.3912 49° Northeast 512 589 35,000  Level FlightAware Transoceanic
08:43AM 16.9442 -146.2759 49° Northeast 512 589 35,000  Level FlightAware Transoceanic
08:44AM 16.9819 -146.2406 49° Northeast 506 582 35,000  Level FlightAware Transoceanic
08:45AM 17.0748 -146.1284 49° Northeast 506 582 35,000  Level FlightAware Transoceanic
08:46AM 17.1676 -146.0161 49° Northeast 506 582 35,000  Level FlightAware Transoceanic
08:47AM 17.2603 -145.9036 49° Northeast 506 582 35,000  Level FlightAware Transoceanic
08:48AM 17.3530 -145.7911 49° Northeast 506 582 35,000  Level FlightAware Transoceanic
08:49AM 17.4456 -145.6784 49° Northeast 506 582 35,000  Level FlightAware Transoceanic
08:50AM 17.5382 -145.5656 49° Northeast 506 582 35,000  Level FlightAware Transoceanic
08:51AM 17.6307 -145.4527 49° Northeast 506 582 35,000  Level FlightAware Transoceanic
08:52AM 17.7231 -145.3397 49° Northeast 506 582 35,000 1,260 Level FlightAware Transoceanic
08:52AM 17.7833 -145.2667 49° Northeast 516 594 37,000  Climbing Oakland Oceanic (ODAPS)
08:53AM 17.8155 -145.2266 49° Northeast 506 582 35,000 -1,380 Descending FlightAware Transoceanic
08:54AM 17.9078 -145.1134 49° Northeast 506 582 35,000 1,020 Level FlightAware Transoceanic
08:54AM 18.0000 -145.0000 49° Northeast 509 586 37,000  Climbing Oakland Oceanic (ODAPS)
08:55AM 18.0000 -145.0000 49° Northeast 506 582 35,000 -1,800 Descending FlightAware Transoceanic
08:56AM 18.0945 -144.8865 49° Northeast 506 582 35,000  Level FlightAware Transoceanic
08:57AM 18.1890 -144.7729 49° Northeast 506 582 35,000 960 Level FlightAware Transoceanic
08:58AM 18.2770 -144.6669 49° Northeast 516 594 37,000 960 Climbing FlightAware Transoceanic
08:59AM 18.3692 -144.5556 49° Northeast 516 594 37,000  Level FlightAware Transoceanic
09:00AM 18.4614 -144.4442 49° Northeast 516 594 37,000  Level FlightAware Transoceanic
09:01AM 18.5663 -144.3172 49° Northeast 509 586 37,000  Level FlightAware Transoceanic
09:02AM 18.6604 -144.2029 49° Northeast 509 586 37,000  Level FlightAware Transoceanic
09:03AM 18.7545 -144.0886 49° Northeast 509 586 37,000  Level FlightAware Transoceanic
09:04AM 18.8485 -143.9741 49° Northeast 509 586 37,000  Level FlightAware Transoceanic
09:05AM 18.9425 -143.8594 49° Northeast 509 586 37,000  Level FlightAware Transoceanic
09:06AM 19.0363 -143.7447 49° Northeast 509 586 37,000  Level FlightAware Transoceanic
09:06AM 19.0667 -143.7167 49° Northeast 500 575 37,000  Level Oakland Oceanic (ODAPS)
09:07AM 19.1301 -143.6298 49° Northeast 509 586 37,000  Level FlightAware Transoceanic
09:08AM 19.2238 -143.5148 49° Northeast 509 586 37,000  Level FlightAware Transoceanic
09:09AM 19.3175 -143.3996 49° Northeast 509 586 37,000  Level FlightAware Transoceanic
09:10AM 19.4111 -143.2844 49° Northeast 509 586 37,000  Level FlightAware Transoceanic
09:11AM 19.5046 -143.1689 49° Northeast 509 586 37,000  Level FlightAware Transoceanic
09:12AM 19.6058 -143.0513 49° Northeast 500 575 37,000  Level FlightAware Transoceanic
09:13AM 19.6954 -142.9400 49° Northeast 500 575 37,000  Level FlightAware Transoceanic
09:14AM 19.7849 -142.8286 50° Northeast 500 575 37,000  Level FlightAware Transoceanic
09:15AM 19.8744 -142.7170 50° Northeast 500 575 37,000  Level FlightAware Transoceanic
09:16AM 19.9638 -142.6053 50° Northeast 500 575 37,000  Level FlightAware Transoceanic
09:17AM 20.0532 -142.4935 50° Northeast 500 575 37,000  Level FlightAware Transoceanic
09:18AM 20.1424 -142.3815 50° Northeast 500 575 37,000  Level FlightAware Transoceanic
09:19AM 20.2316 -142.2695 50° Northeast 500 575 37,000  Level FlightAware Transoceanic
09:20AM 20.3207 -142.1572 50° Northeast 500 575 37,000  Level FlightAware Transoceanic
09:20AM 20.3333 -142.1500 50° Northeast 507 583 37,000  Level Oakland Oceanic (ODAPS)
09:21AM 20.4098 -142.0449 50° Northeast 500 575 37,000  Level FlightAware Transoceanic
09:22AM 20.4988 -141.9324 50° Northeast 500 575 37,000  Level FlightAware Transoceanic
09:23AM 20.5877 -141.8199 50° Northeast 500 575 37,000  Level FlightAware Transoceanic
09:24AM 20.6765 -141.7071 50° Northeast 500 575 37,000  Level FlightAware Transoceanic
09:25AM 20.7653 -141.5943 50° Northeast 500 575 37,000  Level FlightAware Transoceanic
09:26AM 20.8626 -141.4763 50° Northeast 507 583 37,000  Level FlightAware Transoceanic
09:27AM 20.9505 -141.3635 50° Northeast 507 583 37,000  Level FlightAware Transoceanic
09:28AM 21.0384 -141.2506 50° Northeast 507 583 37,000  Level FlightAware Transoceanic
09:29AM 21.1262 -141.1376 50° Northeast 507 583 37,000  Level FlightAware Transoceanic
09:30AM 21.2139 -141.0245 50° Northeast 507 583 37,000  Level FlightAware Transoceanic
09:31AM 21.3016 -140.9112 50° Northeast 507 583 37,000  Level FlightAware Transoceanic
09:32AM 21.3891 -140.7978 50° Northeast 507 583 37,000  Level FlightAware Transoceanic
09:33AM 21.4766 -140.6842 50° Northeast 507 583 37,000  Level FlightAware Transoceanic
09:34AM 21.5641 -140.5705 50° Northeast 507 583 37,000  Level FlightAware Transoceanic
09:34AM 21.5833 -140.5333 50° Northeast 517 595 37,000  Level Oakland Oceanic (ODAPS)
09:35AM 21.6514 -140.4567 50° Northeast 507 583 37,000  Level FlightAware Transoceanic
09:36AM 21.7387 -140.3427 51° Northeast 507 583 37,000  Level FlightAware Transoceanic
09:37AM 21.8259 -140.2286 51° Northeast 507 583 37,000  Level FlightAware Transoceanic
09:38AM 21.9130 -140.1144 51° Northeast 507 583 37,000  Level FlightAware Transoceanic
09:38AM 22.0000 -140.0000 50° Northeast 508 585 37,000  Level Oakland Oceanic (ODAPS)
09:39AM 22.0000 -140.0000 50° Northeast 507 583 37,000  Level FlightAware Transoceanic
09:40AM 22.1792 -139.7696 50° Northeast 517 595 37,000  Level FlightAware Transoceanic
09:41AM 22.2687 -139.6542 50° Northeast 517 595 37,000  Level FlightAware Transoceanic
09:42AM 22.3581 -139.5387 50° Northeast 517 595 37,000  Level FlightAware Transoceanic
09:43AM 22.4474 -139.4230 50° Northeast 517 595 37,000  Level FlightAware Transoceanic
09:44AM 22.5367 -139.3071 50° Northeast 517 595 37,000  Level FlightAware Transoceanic
09:45AM 22.5529 -139.2861 50° Northeast 508 585 37,000  Level FlightAware Transoceanic
09:46AM 22.6448 -139.1665 50° Northeast 508 585 37,000  Level FlightAware Transoceanic
09:47AM 22.7365 -139.0468 50° Northeast 508 585 37,000  Level FlightAware Transoceanic
09:48AM 22.8282 -138.9270 50° Northeast 508 585 37,000  Level FlightAware Transoceanic
09:48AM 22.8500 -138.9000 50° Northeast 503 579 37,000  Level Oakland Oceanic (ODAPS)
09:49AM 22.9197 -138.8069 50° Northeast 508 585 37,000  Level FlightAware Transoceanic
09:50AM 23.0112 -138.6867 50° Northeast 508 585 37,000  Level FlightAware Transoceanic
09:51AM 23.1026 -138.5664 50° Northeast 508 585 37,000  Level FlightAware Transoceanic
09:52AM 23.1939 -138.4459 51° Northeast 508 585 37,000  Level FlightAware Transoceanic
09:53AM 23.2851 -138.3252 51° Northeast 508 585 37,000  Level FlightAware Transoceanic
09:54AM 23.3925 -138.1840 51° Northeast 503 579 37,000  Level FlightAware Transoceanic
09:55AM 23.4827 -138.0641 51° Northeast 503 579 37,000  Level FlightAware Transoceanic
09:56AM 23.5727 -137.9440 51° Northeast 503 579 37,000  Level FlightAware Transoceanic
09:57AM 23.6626 -137.8238 51° Northeast 503 579 37,000  Level FlightAware Transoceanic
09:58AM 23.7524 -137.7034 51° Northeast 503 579 37,000  Level FlightAware Transoceanic
09:59AM 23.8422 -137.5828 51° Northeast 503 579 37,000  Level FlightAware Transoceanic
10:00AM 23.9318 -137.4621 51° Northeast 503 579 37,000  Level FlightAware Transoceanic
10:01AM 24.0214 -137.3412 51° Northeast 503 579 37,000  Level FlightAware Transoceanic
10:01AM 24.0833 -137.2667 51° Northeast 512 589 37,000  Level Oakland Oceanic (ODAPS)
10:02AM 24.1108 -137.2201 51° Northeast 503 579 37,000  Level FlightAware Transoceanic
10:03AM 24.2002 -137.0989 51° Northeast 503 579 37,000  Level FlightAware Transoceanic
10:04AM 24.2894 -136.9775 51° Northeast 503 579 37,000  Level FlightAware Transoceanic
10:05AM 24.3786 -136.8559 51° Northeast 503 579 37,000  Level FlightAware Transoceanic
10:06AM 24.4677 -136.7341 51° Northeast 503 579 37,000  Level FlightAware Transoceanic
10:07AM 24.5566 -136.6122 51° Northeast 503 579 37,000  Level FlightAware Transoceanic
10:08AM 24.6346 -136.5089 52° Northeast 512 589 37,000  Level FlightAware Transoceanic
10:09AM 24.7261 -136.3819 52° Northeast 512 589 37,000  Level FlightAware Transoceanic
10:10AM 24.8175 -136.2548 52° Northeast 512 589 37,000  Level FlightAware Transoceanic
10:11AM 24.9088 -136.1275 52° Northeast 512 589 37,000  Level FlightAware Transoceanic
10:12AM 25.0000 -136.0000 59° Northeast 512 589 37,000  Level FlightAware Transoceanic
10:12AM 25.0000 -136.0000 59° Northeast 516 594 37,000  Level Oakland Oceanic (ODAPS)
10:13AM 25.0727 -135.8668 59° Northeast 512 589 37,000  Level FlightAware Transoceanic
10:14AM 25.1452 -135.7334 59° Northeast 512 589 37,000  Level FlightAware Transoceanic
10:15AM 25.2176 -135.5999 59° Northeast 512 589 37,000  Level FlightAware Transoceanic
10:15AM 25.2500 -135.5333 59° Northeast 515 593 37,000  Level Oakland Oceanic (ODAPS)
10:16AM 25.2899 -135.4662 59° Northeast 512 589 37,000  Level FlightAware Transoceanic
10:17AM 25.3620 -135.3324 59° Northeast 512 589 37,000  Level FlightAware Transoceanic
10:18AM 25.4417 -135.1843 59° Northeast 516 594 37,000  Level FlightAware Transoceanic
10:18AM 25.4000 -135.2500 59° Northeast 490 564 37,000  Level Oakland Oceanic (ODAPS)
10:19AM 25.5149 -135.0477 59° Northeast 516 594 37,000  Level FlightAware Transoceanic
10:20AM 25.5879 -134.9110 59° Northeast 516 594 37,000  Level FlightAware Transoceanic
10:21AM 25.6608 -134.7742 59° Northeast 516 594 37,000  Level FlightAware Transoceanic
10:22AM 25.6941 -134.7055 59° Northeast 515 593 37,000  Level FlightAware Transoceanic
10:23AM 25.7677 -134.5669 60° Northeast 515 593 37,000  Level FlightAware Transoceanic
10:24AM 25.8179 -134.4673 60° Northeast 490 564 37,000  Level FlightAware Transoceanic
10:25AM 25.8872 -134.3362 60° Northeast 490 564 37,000  Level FlightAware Transoceanic
10:26AM 25.9563 -134.2051 60° Northeast 490 564 37,000  Level FlightAware Transoceanic
10:27AM 26.0253 -134.0738 60° Northeast 490 564 37,000  Level FlightAware Transoceanic
10:28AM 26.0942 -133.9424 60° Northeast 490 564 37,000  Level FlightAware Transoceanic
10:29AM 26.1630 -133.8107 60° Northeast 490 564 37,000  Level FlightAware Transoceanic
10:29AM 26.2500 -133.6500 60° Northeast 500 575 37,000  Level Oakland Oceanic (ODAPS)
10:30AM 26.2316 -133.6790 60° Northeast 490 564 37,000  Level FlightAware Transoceanic
10:31AM 26.3001 -133.5470 60° Northeast 490 564 37,000  Level FlightAware Transoceanic
10:32AM 26.3685 -133.4150 60° Northeast 490 564 37,000  Level FlightAware Transoceanic
10:33AM 26.4368 -133.2827 60° Northeast 490 564 37,000  Level FlightAware Transoceanic
10:34AM 26.5050 -133.1504 60° Northeast 490 564 37,000  Level FlightAware Transoceanic
10:35AM 26.6566 -132.8601 60° Northeast 500 575 37,000  Level FlightAware Transoceanic
10:36AM 26.7239 -132.7279 60° Northeast 500 575 37,000  Level FlightAware Transoceanic
10:37AM 26.7912 -132.5955 60° Northeast 500 575 37,000  Level FlightAware Transoceanic
10:38AM 26.8583 -132.4630 60° Northeast 500 575 37,000  Level FlightAware Transoceanic
10:39AM 26.9252 -132.3303 61° Northeast 500 575 37,000  Level FlightAware Transoceanic
10:40AM 26.9921 -132.1975 61° Northeast 500 575 37,000  Level FlightAware Transoceanic
10:41AM 27.0588 -132.0645 61° Northeast 500 575 37,000  Level FlightAware Transoceanic
10:42AM 27.1254 -131.9314 61° Northeast 500 575 37,000  Level FlightAware Transoceanic
10:43AM 27.1919 -131.7981 61° Northeast 500 575 37,000  Level FlightAware Transoceanic
10:43AM 27.2333 -131.7167 61° Northeast 502 578 37,000  Level Oakland Oceanic (ODAPS)
10:44AM 27.2582 -131.6646 61° Northeast 500 575 37,000  Level FlightAware Transoceanic
10:45AM 27.3244 -131.5310 61° Northeast 500 575 37,000  Level FlightAware Transoceanic
10:46AM 27.3905 -131.3972 61° Northeast 500 575 37,000  Level FlightAware Transoceanic
10:47AM 27.4565 -131.2633 61° Northeast 500 575 37,000  Level FlightAware Transoceanic
10:48AM 27.5223 -131.1292 61° Northeast 500 575 37,000  Level FlightAware Transoceanic
10:49AM 27.6345 -130.9013 61° Northeast 502 578 37,000  Level FlightAware Transoceanic
10:50AM 27.7009 -130.7648 61° Northeast 502 578 37,000  Level FlightAware Transoceanic
10:51AM 27.7672 -130.6282 61° Northeast 502 578 37,000  Level FlightAware Transoceanic
10:52AM 27.8333 -130.4913 61° Northeast 502 578 37,000  Level FlightAware Transoceanic
10:53AM 27.8993 -130.3544 61° Northeast 502 578 37,000  Level FlightAware Transoceanic
10:54AM 27.9652 -130.2172 62° Northeast 502 578 37,000  Level FlightAware Transoceanic
10:55AM 28.0309 -130.0799 62° Northeast 502 578 37,000  Level FlightAware Transoceanic
10:56AM 28.0965 -129.9424 62° Northeast 502 578 37,000  Level FlightAware Transoceanic
10:57AM 28.1619 -129.8048 62° Northeast 502 578 37,000  Level FlightAware Transoceanic
10:57AM 28.1833 -129.7667 62° Northeast 519 597 37,000  Level Oakland Oceanic (ODAPS)
10:58AM 28.2272 -129.6670 62° Northeast 502 578 37,000  Level FlightAware Transoceanic
10:59AM 28.2924 -129.5290 62° Northeast 502 578 37,000  Level FlightAware Transoceanic
11:00AM 28.3574 -129.3909 62° Northeast 502 578 37,000  Level FlightAware Transoceanic
11:01AM 28.4223 -129.2525 62° Northeast 502 578 37,000  Level FlightAware Transoceanic
11:02AM 28.4871 -129.1140 62° Northeast 502 578 37,000  Level FlightAware Transoceanic
11:03AM 28.5945 -128.8868 62° Northeast 519 597 37,000  Level FlightAware Transoceanic
11:04AM 28.6625 -128.7395 62° Northeast 519 597 37,000  Level FlightAware Transoceanic
11:05AM 28.7303 -128.5919 62° Northeast 519 597 37,000  Level FlightAware Transoceanic
11:06AM 28.7980 -128.4442 62° Northeast 519 597 37,000  Level FlightAware Transoceanic
11:07AM 28.8655 -128.2964 63° Northeast 519 597 37,000  Level FlightAware Transoceanic
11:08AM 28.9328 -128.1483 63° Northeast 519 597 37,000  Level FlightAware Transoceanic
11:09AM 29.0000 -128.0000 60° Northeast 519 597 37,000  Level FlightAware Transoceanic
11:09AM 29.0000 -128.0000 60° Northeast 513 590 37,000  Level Oakland Oceanic (ODAPS)
11:10AM 29.0711 -127.8594 60° Northeast 519 597 37,000  Level FlightAware Transoceanic
11:11AM 29.1421 -127.7186 60° Northeast 519 597 37,000  Level FlightAware Transoceanic
11:11AM 29.1333 -127.7333 60° Northeast 514 592 37,000  Level Oakland Oceanic (ODAPS)
11:12AM 29.2129 -127.5777 60° Northeast 519 597 37,000  Level FlightAware Transoceanic
11:13AM 29.2836 -127.4365 60° Northeast 519 597 37,000  Level FlightAware Transoceanic
11:14AM 29.3541 -127.2952 60° Northeast 519 597 37,000  Level FlightAware Transoceanic
11:15AM 29.4244 -127.1536 60° Northeast 513 590 37,000  Level FlightAware Transoceanic
11:16AM 29.4947 -127.0118 60° Northeast 513 590 37,000  Level FlightAware Transoceanic
11:17AM 29.5579 -126.8817 60° Northeast 514 592 37,000  Level FlightAware Transoceanic
11:18AM 29.6281 -126.7390 61° Northeast 514 592 37,000  Level FlightAware Transoceanic
11:19AM 29.6982 -126.5962 61° Northeast 514 592 37,000  Level FlightAware Transoceanic
11:20AM 29.7681 -126.4531 61° Northeast 514 592 37,000  Level FlightAware Transoceanic
11:21AM 29.8379 -126.3099 61° Northeast 514 592 37,000  Level FlightAware Transoceanic
11:22AM 29.9075 -126.1665 61° Northeast 514 592 37,000  Level FlightAware Transoceanic
11:23AM 29.9769 -126.0228 61° Northeast 514 592 37,000  Level FlightAware Transoceanic
11:24AM 30.0462 -125.8790 61° Northeast 514 592 37,000  Level FlightAware Transoceanic
11:25AM 30.1154 -125.7350 61° Northeast 514 592 37,000  Level FlightAware Transoceanic
11:25AM 30.1333 -125.6833 61° Northeast 525 604 37,000  Level Oakland Oceanic (ODAPS)
11:26AM 30.1844 -125.5907 61° Northeast 514 592 37,000  Level FlightAware Transoceanic
11:27AM 30.2532 -125.4463 61° Northeast 514 592 37,000  Level FlightAware Transoceanic
11:28AM 30.3219 -125.3016 61° Northeast 514 592 37,000  Level FlightAware Transoceanic
11:29AM 30.3904 -125.1568 61° Northeast 514 592 37,000  Level FlightAware Transoceanic
11:30AM 30.4588 -125.0117 61° Northeast 514 592 37,000  Level FlightAware Transoceanic
11:31AM 30.5662 -124.7744 61° Northeast 525 604 37,000  Level FlightAware Transoceanic
11:32AM 30.6377 -124.6222 61° Northeast 525 604 37,000  Level FlightAware Transoceanic
11:33AM 30.7090 -124.4697 61° Northeast 525 604 37,000  Level FlightAware Transoceanic
11:34AM 30.7802 -124.3170 62° Northeast 525 604 37,000  Level FlightAware Transoceanic
11:35AM 30.8512 -124.1640 62° Northeast 525 604 37,000  Level FlightAware Transoceanic
11:36AM 30.9220 -124.0109 62° Northeast 525 604 37,000  Level FlightAware Transoceanic
11:37AM 30.9926 -123.8575 62° Northeast 525 604 37,000  Level FlightAware Transoceanic
11:38AM 31.0631 -123.7038 62° Northeast 525 604 37,000  Level FlightAware Transoceanic
11:39AM 31.1333 -123.5500 77° East 525 604 37,000  Level FlightAware Transoceanic
11:39AM 31.1589 -123.3939 77° East 426 490 37,000  Level Los Angeles Center
11:40AM 31.1667 -123.3853 77° East 525 604 37,000  Level FlightAware Transoceanic
11:41AM 31.1998 -123.2205 77° East 525 604 37,000  Level FlightAware Transoceanic
11:41AM 31.1908 -123.2161 78° East 542 624 37,000  Level Los Angeles Center
11:42AM 31.2327 -123.0555 77° East 525 604 37,000  Level FlightAware Transoceanic
11:42AM 31.2450 -123.0503 69° East 549 632 37,000  Level Los Angeles Center
11:43AM 31.2654 -122.8905 77° East 525 604 37,000  Level FlightAware Transoceanic
11:44AM 31.2978 -122.7253 77° East 525 604 37,000  Level FlightAware Transoceanic
11:45AM 31.3301 -122.5601 77° East 525 604 37,000  Level FlightAware Transoceanic
11:47AM 31.6770 -122.1870 69° East 519 597 37,000  Level FlightAware
11:48AM 31.7340 -122.0680 61° Northeast 518 596 37,000  Level FlightAware
11:50AM 31.8190 -121.8850 61° Northeast 517 595 37,000  Level FlightAware
11:50AM 31.8480 -121.8250 60° Northeast 517 595 37,000  Level FlightAware
11:51AM 31.9370 -121.6360 61° Northeast 516 594 37,000  Level FlightAware
11:52AM 31.9730 -121.5570 62° Northeast 516 594 37,000  Level FlightAware
11:53AM 32.0380 -121.4210 61° Northeast 515 593 37,000  Level FlightAware
11:53AM 32.0710 -121.3500 61° Northeast 515 593 37,000  Level FlightAware
11:54AM 32.1210 -121.2440 61° Northeast 515 593 37,000  Level FlightAware
11:55AM 32.1920 -121.0870 62° Northeast 511 588 37,000  Level FlightAware
11:56AM 32.2300 -121.0060 61° Northeast 511 588 37,000  Level FlightAware
11:56AM 32.2850 -120.8840 62° Northeast 506 582 37,000  Level FlightAware
11:57AM 32.3490 -120.7410 62° Northeast 504 580 37,000  Level FlightAware
11:58AM 32.3880 -120.6600 60° Northeast 503 579 37,000  Level FlightAware
11:58AM 32.4360 -120.5520 62° Northeast 501 577 37,000  Level FlightAware
11:59AM 32.4870 -120.4390 62° Northeast 501 577 37,000  Level FlightAware
12:00PM 32.5320 -120.3400 62° Northeast 500 575 37,000  Level FlightAware
12:01PM 32.5740 -120.2480 62° Northeast 501 577 37,000  Level FlightAware
12:01PM 32.6250 -120.1330 62° Northeast 502 578 37,000  Level FlightAware
12:02PM 32.6720 -120.0280 62° Northeast 504 580 37,000  Level FlightAware
12:03PM 32.7160 -119.9280 62° Northeast 504 580 37,000  Level FlightAware
12:03PM 32.7630 -119.8250 61° Northeast 505 581 37,000  Level FlightAware
12:04PM 32.8030 -119.7340 62° Northeast 505 581 37,000  Level FlightAware
12:05PM 32.8510 -119.6260 62° Northeast 506 582 37,000  Level FlightAware
12:06PM 32.8820 -119.5540 63° Northeast 507 583 37,000  Level FlightAware
12:06PM 32.9450 -119.4130 62° Northeast 508 585 37,000  Level FlightAware
12:07PM 32.9910 -119.3090 62° Northeast 508 585 37,000  Level FlightAware
12:07PM 33.0270 -119.2270 62° Northeast 508 585 37,000  Level FlightAware
12:08PM 33.0780 -119.1080 63° Northeast 508 585 37,000  Level FlightAware
12:09PM 33.1210 -119.0110 62° Northeast 509 586 37,000  Level FlightAware
12:10PM 33.1590 -118.9230 63° Northeast 509 586 37,000  Level FlightAware
12:10PM 33.2120 -118.8010 63° Northeast 510 587 37,000  Level FlightAware
12:11PM 33.2830 -118.6360 63° Northeast 511 588 37,000  Level FlightAware
12:12PM 33.3350 -118.5150 63° Northeast 510 587 37,000  Level FlightAware
12:13PM 33.3670 -118.4120 70° East 513 590 37,000  Level FlightAware
12:14PM 33.3670 -118.2940 90° East 513 590 37,000  Level FlightAware
12:14PM 33.3630 -118.1770 92° East 514 592 37,000  Level FlightAware
12:15PM 33.3580 -118.0580 93° East 513 590 37,000  Level FlightAware
12:16PM 33.3520 -117.9560 94° East 514 592 37,000  Level FlightAware
12:17PM 33.3380 -117.7120 94° East 514 592 37,000  Level FlightAware
12:18PM 33.3330 -117.6130 93° East 514 592 37,000  Level FlightAware
12:18PM 33.3250 -117.4750 94° East 514 592 37,000  Level FlightAware
12:19PM 33.3180 -117.3560 94° East 514 592 37,000  Level FlightAware
12:20PM 33.3120 -117.2540 94° East 513 590 37,000  Level FlightAware
12:20PM 33.3040 -117.1270 94° East 513 590 37,000  Level FlightAware
12:21PM 33.2970 -117.0080 94° East 513 590 37,000  Level FlightAware
12:22PM 33.2900 -116.8860 94° East 513 590 37,000  Level FlightAware
12:23PM 33.2820 -116.7620 94° East 515 593 37,000  Level FlightAware
12:23PM 33.2750 -116.6510 94° East 517 595 37,000  Level FlightAware
12:24PM 33.2670 -116.5230 94° East 520 598 37,000  Level FlightAware
12:25PM 33.2590 -116.4080 95° East 519 597 37,000  Level FlightAware
12:25PM 33.2550 -116.3430 94° East 518 596 37,000  Level FlightAware
12:26PM 33.2440 -116.1860 95° East 516 594 37,000  Level FlightAware
12:27PM 33.2360 -116.0700 95° East 515 593 37,000  Level FlightAware
12:27PM 33.2290 -115.9560 94° East 514 592 37,000  Level FlightAware
12:28PM 33.2200 -115.8320 95° East 514 592 37,000  Level FlightAware
12:29PM 33.2060 -115.6370 95° East 513 590 37,000  Level FlightAware
12:30PM 33.1990 -115.5440 95° East 513 590 37,000  Level FlightAware
12:31PM 33.1940 -115.4370 93° East 513 590 37,000  Level FlightAware
12:31PM 33.1920 -115.3790 92° East 513 590 37,000  Level FlightAware
12:32PM 33.1870 -115.2690 93° East 513 590 37,000  Level FlightAware
12:32PM 33.1830 -115.1820 93° East 513 590 37,000  Level FlightAware
12:33PM 33.1780 -115.0710 93° East 513 590 37,000  Level FlightAware
12:34PM 33.1740 -114.9820 93° East 513 590 37,000  Level FlightAware
12:34PM 33.1700 -114.8860 93° East 513 590 37,000  Level FlightAware
12:35PM 33.1640 -114.7440 93° East 513 590 37,000  Level FlightAware
12:36PM 33.1600 -114.6570 93° East 513 590 37,000  Level FlightAware
12:36PM 33.1580 -114.5990 92° East 513 590 37,000  Level FlightAware
12:37PM 33.1530 -114.5010 93° East 513 590 37,000  Level FlightAware
12:38PM 33.1300 -114.1540 94° East 525 604 37,000 300 Level FlightAware
12:39PM 33.1190 -114.0500 97° East 529 609 37,500 600 Climbing FlightAware
12:39PM 33.1080 -113.9460 97° East 529 609 37,800 180 Climbing FlightAware
12:40PM 33.0980 -113.8550 97° East 529 609 37,800 900 Level FlightAware
12:41PM 33.0810 -113.7200 99° East 539 620 39,000 780 Climbing FlightAware
12:41PM 33.0710 -113.6260 97° East 539 620 39,000  Level FlightAware
12:42PM 33.0500 -113.4530 98° East 538 619 39,000  Level FlightAware
12:43PM 33.0360 -113.3350 98° East 538 619 39,000  Level FlightAware
12:43PM 33.0220 -113.2120 98° East 537 618 39,000  Level FlightAware
12:44PM 33.0050 -113.0810 99° East 534 615 39,000  Level FlightAware
12:45PM 32.9910 -112.9640 98° East 533 613 39,000  Level FlightAware
12:46PM 32.9740 -112.8280 98° East 533 613 39,000  Level FlightAware
12:46PM 32.9530 -112.6750 99° East 532 612 39,000  Level FlightAware
12:47PM 32.9400 -112.5710 98° East 531 611 39,000  Level FlightAware
12:48PM 32.9220 -112.4320 99° East 531 611 39,000  Level FlightAware
12:49PM 32.9050 -112.3060 99° East 530 610 39,000  Level FlightAware
12:49PM 32.8910 -112.1990 99° East 529 609 39,000  Level FlightAware
12:50PM 32.8740 -112.0700 99° East 529 609 39,000  Level FlightAware
12:51PM 32.8630 -111.9950 100° East 529 609 39,000  Level FlightAware
12:52PM 32.8320 -111.7660 99° East 529 609 39,000  Level FlightAware
12:52PM 32.8170 -111.6540 99° East 529 609 39,000  Level FlightAware
12:53PM 32.7990 -111.5250 99° East 529 609 39,000  Level FlightAware
12:54PM 32.7810 -111.3980 100° East 528 608 39,000  Level FlightAware
12:54PM 32.7760 -111.3580 98° East 528 608 39,000  Level FlightAware
12:55PM 32.7490 -111.1700 100° East 528 608 39,000  Level FlightAware
12:56PM 32.7330 -111.0560 99° East 528 608 39,000  Level FlightAware
12:57PM 32.7120 -110.9130 100° East 527 606 39,000  Level FlightAware
12:57PM 32.6990 -110.8220 100° East 527 606 39,000  Level FlightAware
12:58PM 32.6830 -110.7080 99° East 526 605 39,000  Level FlightAware
12:59PM 32.6630 -110.5770 100° East 525 604 39,000  Level FlightAware
12:59PM 32.6460 -110.4610 100° East 524 603 39,000  Level FlightAware
01:00PM 32.6370 -110.3960 99° East 524 603 39,000  Level FlightAware
01:01PM 32.6120 -110.2260 100° East 523 602 39,000  Level FlightAware
01:01PM 32.5940 -110.1140 101° East 522 601 39,000  Level FlightAware
01:02PM 32.5760 -109.9900 100° East 522 601 39,000  Level FlightAware
01:03PM 32.5580 -109.8710 100° East 523 602 39,000  Level FlightAware
01:03PM 32.5420 -109.7700 101° East 522 601 39,000  Level FlightAware
01:04PM 32.5220 -109.6410 100° East 523 602 39,000  Level FlightAware
01:05PM 32.5050 -109.5280 100° East 523 602 39,000  Level FlightAware
01:06PM 32.4850 -109.4040 101° East 523 602 39,000  Level FlightAware
01:06PM 32.4670 -109.2860 100° East 522 601 39,000  Level FlightAware
01:07PM 32.4470 -109.1620 101° East 524 603 39,000  Level FlightAware
01:08PM 32.4280 -109.0410 101° East 522 601 39,000  Level FlightAware
01:08PM 32.4090 -108.9270 101° East 519 597 39,000  Level FlightAware
01:09PM 32.3910 -108.8150 101° East 517 595 39,000  Level FlightAware
01:10PM 32.3760 -108.7210 101° East 517 595 39,000  Level FlightAware
01:10PM 32.3570 -108.6080 101° East 515 593 39,000  Level FlightAware
01:11PM 32.3440 -108.5280 101° East 515 593 39,000  Level FlightAware
01:12PM 32.3290 -108.4360 101° East 515 593 39,000  Level FlightAware
01:13PM 32.3100 -108.3160 101° East 515 593 39,000  Level FlightAware
01:13PM 32.2950 -108.2240 101° East 515 593 39,000  Level FlightAware
01:15PM 32.2410 -107.9080 101° East 518 596 39,000  Level FlightAware
01:16PM 32.2170 -107.7640 101° East 521 600 39,000  Level FlightAware
01:16PM 32.1980 -107.6500 101° East 521 600 39,000  Level FlightAware
01:17PM 32.1800 -107.5430 101° East 521 600 39,000  Level FlightAware
01:18PM 32.1650 -107.4500 101° East 521 600 39,000  Level FlightAware
01:18PM 32.1510 -107.3650 101° East 521 600 39,000  Level FlightAware
01:19PM 32.1320 -107.2480 101° East 521 600 39,000  Level FlightAware
01:20PM 32.1200 -106.9980 93° East 525 604 39,000  Level FlightAware
01:20PM 32.1150 -106.8960 93° East 526 605 39,000  Level FlightAware
01:21PM 32.1080 -106.7620 93° East 524 603 39,000  Level FlightAware
01:22PM 32.1010 -106.6370 94° East 522 601 39,000  Level FlightAware
01:23PM 32.0930 -106.4790 93° East 521 600 39,000  Level FlightAware
01:24PM 32.0870 -106.3660 94° East 520 598 39,000  Level FlightAware
01:24PM 32.0800 -106.2420 94° East 519 597 39,000  Level FlightAware
01:25PM 32.0730 -106.1290 94° East 519 597 39,000  Level FlightAware
01:26PM 32.0690 -105.9320 91° East 519 597 39,000  Level FlightAware
01:27PM 32.0690 -105.8400 90° East 519 597 39,000  Level FlightAware
01:27PM 32.0690 -105.7530 90° East 519 597 39,000  Level FlightAware
01:28PM 32.0690 -105.6380 90° East 519 597 39,000  Level FlightAware
01:29PM 32.0690 -105.5490 90° East 519 597 39,000  Level FlightAware
01:30PM 32.0690 -105.4330 90° East 519 597 39,000  Level FlightAware
01:30PM 32.0690 -105.3460 90° East 519 597 39,000  Level FlightAware
01:31PM 32.0690 -105.2230 90° East 519 597 39,000  Level FlightAware
01:32PM 32.0690 -105.1340 90° East 519 597 39,000  Level FlightAware
01:32PM 32.0690 -105.0400 90° East 519 597 39,000  Level FlightAware
01:33PM 32.0690 -104.9250 90° East 519 597 39,000  Level FlightAware
01:34PM 32.0690 -104.8360 90° East 519 597 39,000  Level FlightAware
01:35PM 32.0690 -104.7180 90° East 519 597 39,000  Level FlightAware
01:35PM 32.1386 -104.4169 90° East 519 597 39,000  Level Albuquerque Center
01:36PM 32.1456 -104.2500 87° East 514 592 39,000  Level Albuquerque Center
01:37PM 32.1522 -104.0814 87° East 513 590 39,000  Level Albuquerque Center
01:38PM 32.1581 -103.8992 88° East 513 590 39,000  Level Albuquerque Center
01:39PM 32.1644 -103.7328 87° East 511 588 39,000  Level Albuquerque Center
01:40PM 32.1700 -103.5656 88° East 511 588 39,000  Level Albuquerque Center
01:46PM 32.1992 -102.5190 88° East 517 595 39,000  Level FlightAware ADS-B
01:47PM 32.2013 -102.4320 88° East 516 594 39,000  Level FlightAware ADS-B
01:47PM 32.2033 -102.3480 88° East 516 594 39,000  Level FlightAware ADS-B
01:48PM 32.2052 -102.2630 88° East 515 593 39,000  Level FlightAware ADS-B
01:48PM 32.2071 -102.1760 88° East 516 594 39,000  Level FlightAware ADS-B
01:49PM 32.2088 -102.0890 89° East 516 594 39,000  Level FlightAware ADS-B
01:49PM 32.2107 -102.0050 88° East 515 593 39,000  Level FlightAware ADS-B
01:50PM 32.2123 -101.9210 89° East 515 593 39,000  Level FlightAware ADS-B
01:51PM 32.2142 -101.8220 89° East 514 592 39,000  Level FlightAware ADS-B
01:51PM 32.2157 -101.7390 89° East 514 592 39,000  Level FlightAware ADS-B
01:52PM 32.2173 -101.6520 89° East 514 592 39,000  Level FlightAware ADS-B
01:52PM 32.2188 -101.5620 89° East 515 593 39,000  Level FlightAware ADS-B
01:53PM 32.2202 -101.4750 89° East 515 593 39,000  Level FlightAware ADS-B
01:53PM 32.2216 -101.3910 89° East 516 594 39,000  Level FlightAware ADS-B
01:54PM 32.2229 -101.3030 89° East 518 596 39,000  Level FlightAware ADS-B
01:54PM 32.2244 -101.1990 89° East 519 597 39,000  Level FlightAware ADS-B
01:55PM 32.2256 -101.1080 89° East 518 596 39,000  Level FlightAware ADS-B
01:56PM 32.2271 -100.9870 89° East 518 596 39,000  Level FlightAware ADS-B
01:56PM 32.2284 -100.8740 89° East 519 597 39,000  Level FlightAware ADS-B
01:57PM 32.2293 -100.7860 89° East 518 596 39,000  Level FlightAware ADS-B
01:57PM 32.2302 -100.7010 89° East 516 594 39,000  Level FlightAware ADS-B
01:58PM 32.2310 -100.5920 89° East 513 590 39,000  Level FlightAware
01:59PM 32.2320 -100.4610 89° East 507 583 39,000  Level FlightAware
01:59PM 32.2330 -100.3570 89° East 502 578 39,000  Level FlightAware
02:00PM 32.2340 -100.2670 89° East 499 574 39,000  Level FlightAware
02:01PM 32.2344 -100.1560 90° East 494 568 39,000  Level FlightAware ADS-B
02:01PM 32.2351 -100.0460 90° East 489 563 39,000  Level FlightAware ADS-B
02:02PM 32.2354 -99.9638 90° East 487 560 39,000  Level FlightAware ADS-B
02:02PM 32.2352 -99.8393 90° East 485 558 39,000  Level FlightAware ADS-B
02:03PM 32.2335 -99.8023 93° East 487 560 39,000 -180 Level FlightAware ADS-B
02:03PM 32.2196 -99.7322 103° East 491 565 38,900 -780 Descending FlightAware ADS-B
02:04PM 32.1510 -99.6210 126° Southeast 494 568 38,000 -1,080 Descending FlightAware
02:05PM 32.0900 -99.5570 138° Southeast 500 575 37,400 -1,260 Descending FlightAware
02:06PM 32.0260 -99.4380 122° Southeast 502 578 36,200 -2,040 Descending FlightAware
02:06PM 32.0080 -99.3310 101° East 499 574 34,300 -2,520 Descending FlightAware
02:07PM 31.9950 -99.2170 98° East 487 560 32,800 -2,100 Descending FlightAware
02:08PM 31.9830 -99.1020 97° East 476 548 31,300 -1,860 Descending FlightAware
02:08PM 31.9720 -99.0090 98° East 461 531 30,300 -1,860 Descending FlightAware
02:09PM 31.9590 -98.8880 97° East 450 518 28,700 -2,220 Descending FlightAware
02:10PM 31.9470 -98.7920 98° East 450 518 27,100 -2,040 Descending FlightAware
02:11PM 31.9350 -98.6970 98° East 448 516 25,700 -1,860 Descending FlightAware
02:11PM 31.9180 -98.5530 98° East 428 493 24,000 -1,920 Descending FlightAware
02:12PM 31.9170 -98.4350 91° East 412 474 22,500 -1,800 Descending FlightAware
02:13PM 31.9370 -98.3420 76° East 403 464 21,200 -1,800 Descending FlightAware
02:14PM 31.9610 -98.2610 71° East 394 453 20,000 -1,800 Descending FlightAware
02:14PM 31.9900 -98.1710 69° East 385 443 18,700 -1,620 Descending FlightAware
02:15PM 32.0220 -98.0850 66° East 380 437 17,600 -1,380 Descending FlightAware
02:16PM 32.0470 -98.0220 65° Northeast 374 430 16,900 -1,020 Descending FlightAware
02:16PM 32.0830 -97.9380 63° Northeast 357 411 16,300 -720 Descending FlightAware
02:17PM 32.1180 -97.8630 61° Northeast 356 410 15,900 -600 Descending FlightAware
02:18PM 32.1520 -97.7920 60° Northeast 356 410 15,500 -600 Descending FlightAware
02:19PM 32.1850 -97.7250 60° Northeast 355 409 15,100 -600 Descending FlightAware
02:19PM 32.2240 -97.6610 54° Northeast 356 410 14,700 -480 Descending FlightAware
02:20PM 32.2660 -97.5970 52° Northeast 352 405 14,300 -1,140 Descending FlightAware
02:21PM 32.3280 -97.5080 50° Northeast 355 409 12,800 -1,680 Descending FlightAware
02:22PM 32.3730 -97.4610 41° Northeast 348 400 12,100 -900 Descending FlightAware
02:22PM 32.4410 -97.4350 18° North 336 387 11,600 -780 Descending FlightAware
02:23PM 32.5020 -97.4150 15° North 316 364 11,000 -540 Descending FlightAware
02:24PM 32.5530 -97.3970 17° North 302 348 10,900 -120 Descending FlightAware
02:24PM 32.5750 -97.3810 32° Northeast 306 352 10,900 180 Level FlightAware
02:24PM 32.5880 -97.3670 42° Northeast 304 350 11,000  Climbing FlightAware
02:25PM 32.6220 -97.3270 45° Northeast 304 350 10,900 -60 Descending FlightAware
02:27PM 32.7370 -97.1850 46° Northeast 305 351 10,900  Level FlightAware
02:27PM 32.7750 -97.1690 19° North 298 343 10,900 -480 Level FlightAware
02:28PM 32.8290 -97.1670 North 274 315 10,400 -780 Descending FlightAware
02:29PM 32.8770 -97.1670 360° North 250 288 9,900 -900 Descending FlightAware
02:29PM 32.8990 -97.1670 360° North 249 287 9,500 -1,200 Descending FlightAware
02:29PM 32.9320 -97.1660 North 250 288 8,900 -1,380 Descending FlightAware
02:30PM 32.9470 -97.1660 360° North 249 287 8,600 -1,200 Descending FlightAware
02:30PM 32.9570 -97.1650 North 248 285 8,500 -1,200 Descending FlightAware
02:30PM 32.9980 -97.1640 North 244 281 7,700 -1,320 Descending FlightAware
02:31PM 33.0140 -97.1640 360° North 241 277 7,400 -1,080 Descending FlightAware
02:31PM 33.0420 -97.1630 North 237 273 7,000 -1,140 Descending FlightAware
02:31PM 33.0670 -97.1630 360° North 235 270 6,500 -1,200 Descending FlightAware
02:32PM 33.0880 -97.1620 North 233 268 6,100 -1,080 Descending FlightAware
02:32PM 33.1170 -97.1620 360° North 222 255 5,700 -600 Descending FlightAware
02:33PM 33.1600 -97.1540 North 217 250 5,400 -420 Descending FlightAware
02:33PM 33.1670 -97.1420 55° Northeast 215 247 5,300 -600 Descending FlightAware
02:34PM 33.1590 -97.0980 102° East 205 236 4,900 -720 Descending FlightAware
02:34PM 33.1400 -97.0740 133° Southeast 195 224 4,500 -780 Descending FlightAware
02:34PM 33.1320 -97.0650 137° Southeast 195 224 4,400 -480 Descending FlightAware
02:35PM 33.1090 -97.0550 160° South 190 219 4,200 -720 Descending FlightAware
02:35PM 33.0870 -97.0540 178° South 190 219 3,800 -1,020 Descending FlightAware
02:36PM 33.0550 -97.0540 180° South 192 221 3,200 -1,020 Descending FlightAware
02:36PM 33.0340 -97.0540 180° South 192 221 2,800 -900 Descending FlightAware
02:37PM 33.0140 -97.0540 180° South 185 213 2,500 -960 Descending FlightAware
02:37PM 32.9910 -97.0540 180° South 173 199 2,000 -600 Descending FlightAware
02:38PM 32.9460 -97.0540 180° South 147 169 1,500 -480 Descending FlightAware